Time;durP1;ratioP1;P1;durP2;ratioP2;P2;SDS_P1;SDS_P2;PMS_P1;PMS_P2;Temp;Humidity;BMP_temperature;BMP_pressure;BME280_temperature;BME280_humidity;BME280_pressure;Samples;Min_cycle;Max_cycle;Signal;HPM_P1;HPM_P2
2023/01/20 00:02:25;;;;;;;15.40;11.20;;;3.50;99.90;;;;;;5050159;28;20601;-70
2023/01/20 00:04:51;;;;;;;14.90;10.70;;;3.50;99.90;;;;;;5046371;28;20186;-69
2023/01/20 00:07:19;;;;;;;14.77;10.10;;;3.50;99.90;;;;;;5049760;28;20179;-69
2023/01/20 00:09:44;;;;;;;13.87;10.07;;;3.40;99.90;;;;;;5046171;28;20774;-70
2023/01/20 00:12:10;;;;;;;15.23;10.90;;;3.40;99.90;;;;;;5050775;28;20479;-71
2023/01/20 00:14:36;;;;;;;12.47;9.30;;;3.40;99.90;;;;;;5045883;28;20195;-70
2023/01/20 00:17:01;;;;;;;20.50;10.20;;;3.40;99.90;;;;;;5047638;28;20260;-70
2023/01/20 00:19:27;;;;;;;12.87;10.40;;;3.40;99.90;;;;;;5049801;28;20199;-70
2023/01/20 00:21:53;;;;;;;15.47;10.30;;;3.30;99.90;;;;;;5046190;28;20323;-71
2023/01/20 00:24:19;;;;;;;14.67;10.00;;;3.30;99.90;;;;;;5047495;28;20258;-71
2023/01/20 00:26:44;;;;;;;18.10;12.10;;;3.40;99.90;;;;;;5042701;28;21046;-70
2023/01/20 00:29:10;;;;;;;12.83;9.60;;;3.40;99.90;;;;;;5045671;28;21397;-70
2023/01/20 00:31:35;;;;;;;15.50;9.30;;;3.30;99.90;;;;;;5044897;28;20215;-70
2023/01/20 00:34:01;;;;;;;17.70;12.00;;;3.40;99.90;;;;;;5046752;28;20263;-72
2023/01/20 00:36:32;;;;;;;15.20;9.50;;;3.30;99.90;;;;;;5045704;28;20175;-71
2023/01/20 00:38:59;;;;;;;17.83;10.77;;;3.30;99.90;;;;;;5042223;28;20519;-71
2023/01/20 00:41:25;;;;;;;15.20;9.80;;;3.30;99.90;;;;;;5049250;28;20452;-70
2023/01/20 00:43:50;;;;;;;15.57;9.53;;;3.30;99.90;;;;;;5044295;28;20429;-69
2023/01/20 00:46:16;;;;;;;13.97;8.57;;;3.30;99.90;;;;;;5048575;28;20175;-71
2023/01/20 00:48:42;;;;;;;14.17;10.30;;;3.20;99.90;;;;;;5047175;28;20268;-73
2023/01/20 00:51:08;;;;;;;15.00;9.73;;;3.20;99.90;;;;;;5049490;28;20230;-70
2023/01/20 00:53:35;;;;;;;16.30;10.63;;;3.20;99.90;;;;;;5048800;28;20624;-70
2023/01/20 00:56:00;;;;;;;13.77;9.10;;;3.20;99.90;;;;;;5044859;28;20482;-71
2023/01/20 00:58:26;;;;;;;14.00;9.67;;;3.30;99.90;;;;;;5045604;28;20429;-72
2023/01/20 01:00:52;;;;;;;12.10;9.10;;;3.20;99.90;;;;;;5042954;28;20199;-70
2023/01/20 01:03:18;;;;;;;14.40;9.90;;;3.20;99.90;;;;;;5047783;28;20187;-69
2023/01/20 01:05:44;;;;;;;14.40;9.07;;;3.20;99.90;;;;;;5048509;28;20482;-69
2023/01/20 01:08:10;;;;;;;12.93;9.90;;;3.10;99.90;;;;;;5048060;28;21817;-69
2023/01/20 01:10:37;;;;;;;14.10;10.80;;;3.10;99.90;;;;;;5048001;28;20210;-70
2023/01/20 01:13:03;;;;;;;16.90;10.90;;;3.10;99.90;;;;;;5039147;28;20468;-71
2023/01/20 01:15:29;;;;;;;14.03;9.17;;;3.10;99.90;;;;;;5054100;28;20425;-70
2023/01/20 01:17:56;;;;;;;15.33;9.93;;;3.10;99.90;;;;;;5046887;28;20954;-70
2023/01/20 01:20:22;;;;;;;12.17;9.20;;;2.90;99.90;;;;;;5050668;28;20254;-71
2023/01/20 01:22:47;;;;;;;17.20;10.50;;;2.90;99.90;;;;;;5044679;28;20528;-70
2023/01/20 01:25:13;;;;;;;11.97;9.27;;;2.80;99.90;;;;;;5050494;28;20178;-71
2023/01/20 01:27:38;;;;;;;11.10;9.47;;;2.90;99.90;;;;;;5048766;28;20217;-70
2023/01/20 01:30:04;;;;;;;15.20;8.73;;;2.90;99.90;;;;;;5047249;28;20214;-70
2023/01/20 01:32:30;;;;;;;10.60;9.43;;;2.90;99.90;;;;;;5046610;28;20606;-70
2023/01/20 01:34:56;;;;;;;11.60;8.23;;;2.90;99.90;;;;;;5047680;28;20473;-70
2023/01/20 01:37:22;;;;;;;14.83;9.17;;;2.80;99.90;;;;;;5045374;28;20254;-68
2023/01/20 01:39:47;;;;;;;12.77;9.63;;;2.70;99.90;;;;;;5043101;28;20179;-69
2023/01/20 01:42:16;;;;;;;11.30;9.53;;;2.80;99.90;;;;;;5051617;28;20449;-70
2023/01/20 01:45:09;;;;;;;12.60;10.03;;;2.80;99.90;;;;;;5048904;28;20305;-69
2023/01/20 01:47:40;;;;;;;15.00;9.40;;;2.70;99.90;;;;;;5045772;28;20452;-70
2023/01/20 01:50:08;;;;;;;12.20;9.57;;;2.70;99.90;;;;;;5049369;28;20440;-73
2023/01/20 01:52:33;;;;;;;12.33;9.60;;;2.70;99.90;;;;;;5050439;28;20680;-72
2023/01/20 01:55:01;;;;;;;13.93;10.73;;;2.80;99.90;;;;;;5048108;28;20476;-69
2023/01/20 01:57:30;;;;;;;18.73;12.53;;;2.80;99.90;;;;;;5049687;28;20298;-71
2023/01/20 01:59:55;;;;;;;16.13;10.43;;;2.70;99.90;;;;;;5043945;28;20955;-70
2023/01/20 02:02:21;;;;;;;15.30;10.10;;;2.70;99.90;;;;;;5049554;28;20456;-71
2023/01/20 02:04:47;;;;;;;15.00;10.60;;;2.70;99.90;;;;;;5049596;28;20705;-70
2023/01/20 02:07:16;;;;;;;12.57;9.10;;;2.70;99.90;;;;;;5049622;28;20897;-70
2023/01/20 02:09:42;;;;;;;12.90;9.20;;;2.80;99.90;;;;;;5052471;28;20460;-69
2023/01/20 02:12:14;;;;;;;13.70;9.10;;;2.80;99.90;;;;;;5053602;28;20461;-72
2023/01/20 02:14:46;;;;;;;13.67;9.07;;;2.80;99.90;;;;;;5052090;28;20465;-71
2023/01/20 02:17:22;;;;;;;13.83;8.00;;;2.70;99.90;;;;;;5050880;28;20442;-72
2023/01/20 02:20:15;;;;;;;11.67;7.93;;;2.70;99.90;;;;;;5051115;28;20546;-73
2023/01/20 02:23:01;;;;;;;14.07;9.43;;;2.60;99.90;;;;;;5051072;28;20433;-72
2023/01/20 02:25:46;;;;;;;10.07;8.07;;;2.60;99.90;;;;;;5047517;28;20437;-71
2023/01/20 02:28:14;;;;;;;12.43;7.73;;;2.60;99.90;;;;;;5045676;28;20451;-71
2023/01/20 02:31:01;;;;;;;14.13;8.70;;;2.70;99.90;;;;;;5048829;28;20867;-73
2023/01/20 02:33:32;;;;;;;12.07;8.43;;;2.70;99.90;;;;;;5052798;28;20468;-70
2023/01/20 02:36:15;;;;;;;11.73;8.37;;;2.70;99.90;;;;;;5046984;28;20429;-71
2023/01/20 02:38:55;;;;;;;14.70;8.03;;;2.70;99.90;;;;;;5052176;28;20534;-72
2023/01/20 02:41:49;;;;;;;10.97;7.57;;;2.70;99.90;;;;;;5046891;28;21598;-70
2023/01/20 02:44:21;;;;;;;11.97;7.00;;;2.60;99.90;;;;;;5047302;28;20552;-71
2023/01/20 02:46:53;;;;;;;12.60;8.23;;;2.50;99.90;;;;;;5043669;28;20468;-71
2023/01/20 02:49:33;;;;;;;7.90;6.60;;;2.60;99.90;;;;;;5047895;28;20437;-70
2023/01/20 02:52:33;;;;;;;11.20;8.17;;;2.60;99.90;;;;;;5045042;28;20477;-72
2023/01/20 02:55:06;;;;;;;11.97;8.27;;;2.50;99.90;;;;;;5033007;28;20972;-70
2023/01/20 02:57:46;;;;;;;12.17;7.67;;;2.60;99.90;;;;;;5047626;28;21075;-72
2023/01/20 03:00:17;;;;;;;17.70;8.20;;;2.50;99.90;;;;;;5049096;28;20425;-71
2023/01/20 03:02:46;;;;;;;10.67;7.30;;;2.60;99.90;;;;;;5046765;28;20449;-72
2023/01/20 03:05:17;;;;;;;11.40;7.23;;;2.50;99.90;;;;;;5051691;28;21241;-71
2023/01/20 03:07:44;;;;;;;9.63;7.63;;;2.50;99.90;;;;;;5053219;28;20487;-70
2023/01/20 03:10:14;;;;;;;8.40;6.30;;;2.50;99.90;;;;;;5049915;28;20424;-71
2023/01/20 03:12:54;;;;;;;8.60;7.00;;;2.40;99.90;;;;;;5050367;28;20519;-71
2023/01/20 03:15:24;;;;;;;9.80;7.27;;;2.40;99.90;;;;;;5051642;28;20457;-70
2023/01/20 03:17:50;;;;;;;13.13;8.50;;;2.50;99.90;;;;;;5047728;28;20437;-71
2023/01/20 03:20:16;;;;;;;11.40;8.23;;;2.40;99.90;;;;;;5049875;28;20417;-72
2023/01/20 03:22:42;;;;;;;12.00;6.73;;;2.50;99.90;;;;;;5052192;28;20432;-71
2023/01/20 03:25:10;;;;;;;11.00;7.93;;;2.60;99.90;;;;;;5049567;28;20218;-72
2023/01/20 03:27:36;;;;;;;12.60;7.97;;;2.50;99.90;;;;;;5047627;28;20477;-71
2023/01/20 03:30:02;;;;;;;11.83;8.10;;;2.50;99.90;;;;;;5053976;28;20475;-73
2023/01/20 03:32:28;;;;;;;12.53;7.07;;;2.60;99.90;;;;;;5049903;28;20499;-72
2023/01/20 03:34:55;;;;;;;12.03;7.80;;;2.60;99.90;;;;;;5032933;28;20853;-73
2023/01/20 03:37:21;;;;;;;10.40;7.50;;;2.60;99.90;;;;;;5046965;28;20430;-72
2023/01/20 03:39:48;;;;;;;12.63;8.07;;;2.70;99.90;;;;;;5049909;28;20441;-71
2023/01/20 03:42:23;;;;;;;11.43;7.33;;;2.60;99.90;;;;;;5046190;28;20543;-72
2023/01/20 03:44:58;;;;;;;11.17;7.10;;;2.60;99.90;;;;;;5044864;28;20749;-73
2023/01/20 03:47:38;;;;;;;8.77;6.70;;;2.60;99.90;;;;;;5045969;28;20424;-72
2023/01/20 03:50:30;;;;;;;8.47;5.90;;;2.60;99.90;;;;;;5049876;28;20453;-71
2023/01/20 03:53:14;;;;;;;9.53;6.50;;;2.50;99.90;;;;;;5045711;28;20469;-72
2023/01/20 03:55:47;;;;;;;9.10;6.17;;;2.60;99.90;;;;;;5047002;28;20441;-72
2023/01/20 03:58:19;;;;;;;9.50;6.80;;;2.40;99.90;;;;;;5047422;28;20441;-71
2023/01/20 04:00:48;;;;;;;8.27;7.30;;;2.40;99.90;;;;;;5051080;28;20461;-71
2023/01/20 04:03:42;;;;;;;9.00;6.90;;;2.50;99.90;;;;;;5048408;28;20429;-70
2023/01/20 04:06:11;;;;;;;8.47;6.33;;;2.60;99.90;;;;;;5043147;28;20560;-70
2023/01/20 04:08:43;;;;;;;7.80;5.93;;;2.60;99.90;;;;;;5047206;28;20430;-70
2023/01/20 04:11:09;;;;;;;9.23;7.40;;;2.60;99.90;;;;;;5045428;28;21046;-69
2023/01/20 04:13:35;;;;;;;9.80;6.87;;;2.70;99.90;;;;;;5047190;28;20471;-71
2023/01/20 04:16:03;;;;;;;7.50;6.67;;;2.70;99.90;;;;;;5047767;28;20185;-68
2023/01/20 04:18:29;;;;;;;9.40;7.17;;;2.60;99.90;;;;;;5046998;28;20449;-69
2023/01/20 04:21:02;;;;;;;8.87;6.07;;;2.50;99.90;;;;;;5043916;28;20477;-68
2023/01/20 04:23:33;;;;;;;9.70;6.43;;;2.50;99.90;;;;;;5047213;28;20296;-70
2023/01/20 04:25:59;;;;;;;9.47;6.10;;;2.60;99.90;;;;;;5040777;28;20523;-69
2023/01/20 04:28:25;;;;;;;10.10;6.73;;;2.60;99.90;;;;;;5041692;28;21341;-70
2023/01/20 04:30:50;;;;;;;9.63;6.43;;;2.60;99.90;;;;;;5045599;28;20207;-68
2023/01/20 04:33:16;;;;;;;7.50;6.23;;;2.60;99.90;;;;;;5043321;28;20493;-71
2023/01/20 04:35:42;;;;;;;7.97;6.37;;;2.60;99.90;;;;;;5043529;28;20429;-69
2023/01/20 04:38:08;;;;;;;16.97;6.00;;;2.60;99.90;;;;;;5041437;28;20429;-69
2023/01/20 04:40:33;;;;;;;8.77;5.67;;;2.50;99.90;;;;;;5049792;28;20203;-69
2023/01/20 04:42:59;;;;;;;8.37;5.37;;;2.30;99.90;;;;;;5043578;28;20175;-70
2023/01/20 04:45:24;;;;;;;8.60;6.00;;;2.30;99.90;;;;;;5043570;28;20206;-70
2023/01/20 04:47:50;;;;;;;8.23;6.33;;;2.20;99.90;;;;;;5047811;28;20194;-67
2023/01/20 04:50:16;;;;;;;9.50;5.70;;;2.30;99.90;;;;;;5052875;28;20270;-69
2023/01/20 04:52:42;;;;;;;7.80;5.40;;;2.30;99.90;;;;;;5050449;28;20205;-69
2023/01/20 04:55:09;;;;;;;9.03;6.20;;;2.20;99.90;;;;;;5048499;28;20493;-68
2023/01/20 04:57:34;;;;;;;11.90;6.90;;;2.10;99.90;;;;;;5049993;28;20428;-70
2023/01/20 05:00:00;;;;;;;9.27;6.40;;;2.10;99.90;;;;;;5050677;28;20471;-69
2023/01/20 05:02:26;;;;;;;7.57;6.00;;;2.00;99.90;;;;;;5052060;28;20233;-71
2023/01/20 05:04:51;;;;;;;10.00;6.97;;;2.00;99.90;;;;;;5048917;28;20264;-69
2023/01/20 05:07:17;;;;;;;10.30;6.60;;;2.00;99.90;;;;;;5051088;28;20182;-70
2023/01/20 05:09:43;;;;;;;11.20;7.50;;;2.00;99.90;;;;;;5046536;28;20269;-70
2023/01/20 05:12:08;;;;;;;8.63;6.50;;;1.90;99.90;;;;;;5046615;28;20218;-71
2023/01/20 05:14:34;;;;;;;12.93;6.70;;;2.00;99.90;;;;;;5051233;28;20568;-70
2023/01/20 05:16:59;;;;;;;8.40;6.83;;;2.10;99.90;;;;;;5054667;28;20181;-69
2023/01/20 05:19:25;;;;;;;9.37;6.77;;;2.10;99.90;;;;;;5052578;28;20849;-69
2023/01/20 05:21:51;;;;;;;11.10;7.00;;;2.00;99.90;;;;;;5057654;28;20203;-68
2023/01/20 05:24:16;;;;;;;8.80;6.50;;;2.00;99.90;;;;;;5051849;28;20214;-69
2023/01/20 05:26:42;;;;;;;7.77;6.13;;;2.00;99.90;;;;;;5057287;28;20189;-71
2023/01/20 05:29:08;;;;;;;10.63;6.70;;;2.00;99.90;;;;;;5052944;28;20193;-69
2023/01/20 05:31:33;;;;;;;9.47;6.50;;;2.00;99.90;;;;;;5058681;28;20199;-69
2023/01/20 05:33:59;;;;;;;8.00;5.93;;;2.10;99.90;;;;;;5053256;28;20199;-73
2023/01/20 05:36:27;;;;;;;8.77;6.13;;;2.10;99.90;;;;;;5055037;28;20270;-70
2023/01/20 05:38:53;;;;;;;13.53;6.70;;;2.10;99.90;;;;;;5048865;28;20754;-69
2023/01/20 05:41:18;;;;;;;9.27;5.83;;;2.10;99.90;;;;;;5053906;28;20551;-71
2023/01/20 05:43:44;;;;;;;8.93;5.30;;;2.10;99.90;;;;;;5054282;28;20524;-71
2023/01/20 05:46:09;;;;;;;12.20;7.10;;;2.00;99.90;;;;;;5052253;28;21029;-73
2023/01/20 05:48:35;;;;;;;9.53;6.70;;;2.00;99.90;;;;;;5058061;28;20174;-73
2023/01/20 05:51:01;;;;;;;8.10;6.03;;;1.90;99.90;;;;;;5055305;28;21585;-72
2023/01/20 05:53:26;;;;;;;6.93;5.87;;;1.90;99.90;;;;;;5055316;28;20564;-69
2023/01/20 05:56:03;;;;;;;11.30;6.80;;;1.80;99.90;;;;;;5057042;28;20176;-71
2023/01/20 05:58:29;;;;;;;8.07;5.60;;;1.80;99.90;;;;;;5056600;28;20662;-68
2023/01/20 06:01:03;;;;;;;9.70;6.30;;;1.80;99.90;;;;;;5050284;28;20466;-71
2023/01/20 06:03:29;;;;;;;9.87;6.30;;;1.70;99.90;;;;;;5058556;28;20518;-70
2023/01/20 06:06:02;;;;;;;9.03;6.10;;;1.80;99.90;;;;;;5054004;28;20467;-70
2023/01/20 06:08:27;;;;;;;17.13;7.03;;;1.70;99.90;;;;;;5050696;28;20171;-69
2023/01/20 06:10:53;;;;;;;9.37;7.00;;;1.80;99.90;;;;;;5053983;28;20543;-69
2023/01/20 06:13:19;;;;;;;8.87;6.13;;;1.80;99.90;;;;;;5053461;28;20203;-69
2023/01/20 06:15:49;;;;;;;10.70;6.83;;;1.80;99.90;;;;;;5052782;28;20187;-71
2023/01/20 06:18:14;;;;;;;10.90;6.53;;;1.90;99.90;;;;;;5051030;28;20801;-72
2023/01/20 06:20:40;;;;;;;12.83;6.70;;;2.00;99.90;;;;;;5054300;28;20441;-70
2023/01/20 06:23:06;;;;;;;7.10;5.53;;;1.90;99.90;;;;;;5053458;28;20190;-70
2023/01/20 06:25:34;;;;;;;11.27;7.30;;;2.00;99.90;;;;;;5051776;28;20214;-71
2023/01/20 06:27:59;;;;;;;9.70;6.97;;;1.90;99.90;;;;;;5050640;28;20194;-73
2023/01/20 06:30:25;;;;;;;8.43;6.30;;;2.00;99.90;;;;;;5054458;28;20660;-70
2023/01/20 06:32:51;;;;;;;11.13;7.00;;;2.10;99.90;;;;;;5054851;28;20263;-70
2023/01/20 06:35:16;;;;;;;10.00;6.90;;;2.20;99.90;;;;;;5050976;28;20599;-72
2023/01/20 06:37:42;;;;;;;10.43;7.10;;;2.20;99.90;;;;;;5053745;28;20418;-71
2023/01/20 06:40:08;;;;;;;11.67;7.87;;;2.10;99.90;;;;;;5050945;28;20186;-72
2023/01/20 06:42:34;;;;;;;14.83;6.73;;;2.00;99.90;;;;;;5052692;28;20226;-71
2023/01/20 06:44:59;;;;;;;12.77;6.83;;;1.90;99.90;;;;;;5048973;28;20476;-72
2023/01/20 06:47:25;;;;;;;8.70;6.90;;;1.90;99.90;;;;;;5049475;28;20241;-70
2023/01/20 06:49:50;;;;;;;8.60;5.73;;;1.90;99.90;;;;;;5053003;28;20183;-69
2023/01/20 06:52:16;;;;;;;8.83;5.57;;;2.00;99.90;;;;;;5051603;28;20220;-70
2023/01/20 06:54:42;;;;;;;9.63;7.37;;;2.00;99.90;;;;;;5054582;28;20220;-67
2023/01/20 06:57:07;;;;;;;7.57;5.87;;;2.00;99.90;;;;;;5049905;28;21089;-67
2023/01/20 06:59:33;;;;;;;9.97;7.00;;;2.00;99.90;;;;;;5046105;28;20263;-66
2023/01/20 07:01:58;;;;;;;8.67;5.30;;;2.00;99.90;;;;;;5047003;28;20282;-68
2023/01/20 07:04:24;;;;;;;10.03;7.27;;;1.90;99.90;;;;;;5050833;28;20252;-67
2023/01/20 07:06:50;;;;;;;7.77;5.70;;;2.00;99.90;;;;;;5050473;28;20181;-67
2023/01/20 07:09:15;;;;;;;9.47;6.40;;;2.00;99.90;;;;;;5051190;28;20760;-66
2023/01/20 07:11:41;;;;;;;9.23;6.20;;;1.90;99.90;;;;;;5063730;28;20201;-68
2023/01/20 07:14:07;;;;;;;7.87;5.70;;;1.90;99.90;;;;;;5049025;28;20207;-68
2023/01/20 07:16:33;;;;;;;7.50;5.53;;;1.90;99.90;;;;;;5043886;28;20186;-68
2023/01/20 07:18:59;;;;;;;8.20;5.47;;;2.00;99.90;;;;;;5048771;28;21255;-68
2023/01/20 07:21:24;;;;;;;8.90;6.10;;;2.00;99.90;;;;;;5050116;28;20574;-68
2023/01/20 07:23:50;;;;;;;12.33;6.87;;;2.10;99.90;;;;;;5064005;28;20207;-66
2023/01/20 07:26:19;;;;;;;9.27;5.80;;;2.00;99.90;;;;;;5048156;28;20179;-66
2023/01/20 07:28:45;;;;;;;10.47;5.90;;;1.90;99.90;;;;;;5045842;28;20465;-67
2023/01/20 07:31:16;;;;;;;9.10;6.37;;;1.80;99.90;;;;;;5046508;28;20464;-67
2023/01/20 07:33:42;;;;;;;7.93;6.00;;;1.80;99.90;;;;;;5051572;28;20498;-68
2023/01/20 07:36:10;;;;;;;6.67;5.47;;;1.90;99.90;;;;;;5045075;28;20432;-67
2023/01/20 07:38:36;;;;;;;8.03;5.70;;;1.90;99.90;;;;;;5053172;28;20436;-67
2023/01/20 07:41:04;;;;;;;7.87;6.30;;;1.90;99.90;;;;;;5042326;28;20561;-67
2023/01/20 07:43:31;;;;;;;11.70;6.47;;;1.90;99.90;;;;;;5052073;28;20431;-68
2023/01/20 07:45:58;;;;;;;7.00;5.50;;;2.00;99.90;;;;;;5049429;28;20508;-69
2023/01/20 07:48:24;;;;;;;7.70;5.60;;;1.80;99.90;;;;;;5051504;28;20432;-67
2023/01/20 07:51:00;;;;;;;9.67;6.03;;;1.80;99.90;;;;;;5034744;28;20463;-66
2023/01/20 07:53:27;;;;;;;8.50;5.80;;;1.80;99.90;;;;;;5038616;28;20542;-65
2023/01/20 07:55:52;;;;;;;7.30;5.67;;;1.90;99.90;;;;;;5043504;28;20444;-65
2023/01/20 07:58:18;;;;;;;9.33;6.10;;;2.00;99.90;;;;;;5048657;28;20419;-66
2023/01/20 08:00:47;;;;;;;9.43;5.93;;;1.90;99.90;;;;;;5051153;28;20253;-65
2023/01/20 08:03:14;;;;;;;7.27;6.23;;;1.90;99.90;;;;;;5045671;28;20580;-66
2023/01/20 08:05:39;;;;;;;9.93;6.30;;;1.90;99.90;;;;;;5053386;28;20424;-66
2023/01/20 08:08:05;;;;;;;11.77;6.73;;;1.90;99.90;;;;;;5046433;28;20977;-66
2023/01/20 08:10:30;;;;;;;7.70;6.27;;;1.90;99.90;;;;;;5050436;28;20328;-66
2023/01/20 08:12:57;;;;;;;8.93;6.30;;;2.00;99.90;;;;;;5047799;28;20335;-67
2023/01/20 08:15:22;;;;;;;9.27;6.20;;;2.00;99.90;;;;;;5052018;28;20181;-65
2023/01/20 08:17:53;;;;;;;9.13;5.70;;;2.00;99.90;;;;;;5039907;28;20437;-66
2023/01/20 08:20:18;;;;;;;13.10;6.57;;;2.00;99.90;;;;;;5052697;28;20187;-65
2023/01/20 08:22:44;;;;;;;9.70;5.93;;;1.90;99.90;;;;;;5053996;28;20425;-65
2023/01/20 08:25:09;;;;;;;10.90;7.20;;;1.80;99.90;;;;;;5045710;28;20380;-66
2023/01/20 08:27:35;;;;;;;11.30;5.83;;;1.80;99.90;;;;;;5052828;28;20828;-65
2023/01/20 08:30:01;;;;;;;11.10;7.63;;;1.80;99.90;;;;;;5054208;28;20197;-66
2023/01/20 08:32:26;;;;;;;9.33;6.10;;;1.90;99.90;;;;;;5046913;28;20613;-66
2023/01/20 08:34:52;;;;;;;9.53;6.60;;;2.00;99.90;;;;;;5060706;28;20209;-66
2023/01/20 08:37:18;;;;;;;10.57;6.90;;;2.00;99.90;;;;;;5062541;28;20175;-66
2023/01/20 08:39:43;;;;;;;9.40;6.23;;;2.00;99.90;;;;;;5056052;28;20640;-68
2023/01/20 08:42:09;;;;;;;8.93;6.10;;;2.10;99.90;;;;;;5037164;28;20267;-66
2023/01/20 08:44:34;;;;;;;9.73;7.20;;;2.10;99.90;;;;;;5047454;28;20203;-67
2023/01/20 08:47:01;;;;;;;9.70;6.77;;;2.20;99.90;;;;;;5039487;28;20182;-67
2023/01/20 08:49:28;;;;;;;15.10;7.00;;;2.10;99.90;;;;;;5050502;28;20228;-68
2023/01/20 08:51:55;;;;;;;9.07;6.80;;;2.20;99.90;;;;;;5038992;28;20834;-66
2023/01/20 08:54:21;;;;;;;9.70;6.70;;;2.20;99.90;;;;;;5046258;28;20425;-66
2023/01/20 08:56:51;;;;;;;12.43;8.07;;;2.30;99.90;;;;;;5041469;28;20448;-65
2023/01/20 08:59:18;;;;;;;13.63;7.87;;;2.30;99.90;;;;;;5047970;28;20464;-66
2023/01/20 09:01:44;;;;;;;9.33;7.23;;;2.40;99.90;;;;;;5042137;28;20506;-67
2023/01/20 09:04:10;;;;;;;16.50;7.87;;;2.30;99.90;;;;;;5047112;28;20421;-66
2023/01/20 09:06:48;;;;;;;13.40;8.33;;;2.30;99.90;;;;;;5039736;28;21003;-66
2023/01/20 09:09:16;;;;;;;12.60;9.33;;;2.30;99.90;;;;;;5041625;28;20428;-64
2023/01/20 09:11:49;;;;;;;10.90;8.10;;;2.30;99.90;;;;;;5047479;28;20449;-65
2023/01/20 09:14:16;;;;;;;14.07;8.87;;;2.30;99.90;;;;;;5047303;28;20498;-66
2023/01/20 09:16:41;;;;;;;13.53;9.53;;;2.40;99.90;;;;;;5048125;28;21264;-66
2023/01/20 09:19:07;;;;;;;13.70;8.77;;;2.50;99.90;;;;;;5038396;28;20437;-66
2023/01/20 09:21:33;;;;;;;12.70;8.70;;;2.40;99.90;;;;;;5046809;28;20199;-65
2023/01/20 09:23:59;;;;;;;10.73;8.13;;;2.50;99.90;;;;;;5049198;28;20428;-65
2023/01/20 09:26:24;;;;;;;13.33;8.70;;;2.50;99.90;;;;;;5048536;28;20190;-65
2023/01/20 09:28:50;;;;;;;16.80;9.60;;;2.50;99.90;;;;;;5049166;28;20190;-65
2023/01/20 09:31:16;;;;;;;14.93;9.20;;;2.60;99.90;;;;;;5048198;28;20195;-65
2023/01/20 09:33:42;;;;;;;13.83;9.30;;;2.70;99.90;;;;;;5052389;28;20507;-66
2023/01/20 09:36:10;;;;;;;11.83;9.13;;;2.60;99.90;;;;;;5039207;28;20197;-66
2023/01/20 09:44:45;;;;;;;12.23;8.93;;;2.70;99.90;;;;;;5043521;28;20591;-68
2023/01/20 09:47:36;;;;;;;13.73;9.00;;;2.80;99.90;;;;;;5045292;28;20517;-67
2023/01/20 09:53:36;;;;;;;12.50;10.30;;;3.00;99.90;;;;;;5047812;28;21026;-64
2023/01/20 09:56:11;;;;;;;13.43;9.40;;;3.00;99.90;;;;;;5047809;28;20424;-66
2023/01/20 09:59:04;;;;;;;15.80;9.67;;;3.10;99.90;;;;;;5049418;28;20445;-66
2023/01/20 10:01:38;;;;;;;15.77;11.23;;;3.20;99.90;;;;;;5050607;28;20464;-66
2023/01/20 10:04:12;;;;;;;15.87;10.17;;;3.20;99.90;;;;;;5051224;28;20420;-67
2023/01/20 10:07:01;;;;;;;20.47;10.67;;;3.20;99.90;;;;;;5049622;28;20433;-65
2023/01/20 10:09:39;;;;;;;15.10;11.87;;;3.30;99.90;;;;;;5050915;28;20868;-67
2023/01/20 10:12:13;;;;;;;15.40;10.00;;;3.20;99.90;;;;;;5051379;28;20975;-65
2023/01/20 10:14:47;;;;;;;15.83;11.00;;;3.30;99.90;;;;;;5051450;28;20522;-67
2023/01/20 10:17:21;;;;;;;16.13;11.23;;;3.30;99.90;;;;;;5047793;28;20429;-67
2023/01/20 10:20:15;;;;;;;16.33;11.20;;;3.30;99.90;;;;;;5054699;28;20413;-66
2023/01/20 10:22:50;;;;;;;17.77;10.87;;;3.30;99.90;;;;;;5054113;28;20437;-67
2023/01/20 10:25:27;;;;;;;15.10;11.37;;;3.40;99.90;;;;;;5053530;28;20413;-68
2023/01/20 10:27:58;;;;;;;15.40;10.97;;;3.50;99.90;;;;;;5052874;28;20460;-67
2023/01/20 10:30:29;;;;;;;15.40;10.97;;;3.50;99.90;;;;;;5051936;28;20432;-67
2023/01/20 10:33:22;;;;;;;17.27;11.27;;;3.40;99.90;;;;;;5052241;28;21157;-67
2023/01/20 10:35:53;;;;;;;19.20;12.43;;;3.50;99.90;;;;;;5046773;28;20431;-66
2023/01/20 10:38:38;;;;;;;16.47;11.57;;;3.60;99.90;;;;;;5049059;28;20417;-66
2023/01/20 10:41:30;;;;;;;17.80;11.67;;;3.70;99.90;;;;;;5051436;28;20437;-65
2023/01/20 10:43:57;;;;;;;18.67;12.30;;;3.70;99.90;;;;;;5079654;28;21100;-66
2023/01/20 10:46:33;;;;;;;16.73;11.70;;;3.80;99.90;;;;;;5051885;28;20626;-66
2023/01/20 10:49:17;;;;;;;19.50;10.60;;;3.70;99.90;;;;;;5049253;28;20432;-67
2023/01/20 10:52:20;;;;;;;16.67;11.77;;;3.80;99.90;;;;;;5048068;28;21309;-67
2023/01/20 10:54:58;;;;;;;14.30;11.40;;;3.90;99.90;;;;;;5051401;28;20413;-67
2023/01/20 10:57:24;;;;;;;16.83;11.97;;;4.00;99.90;;;;;;5050480;28;20484;-66
2023/01/20 10:59:54;;;;;;;15.87;11.73;;;4.00;99.90;;;;;;5054977;28;20922;-66
2023/01/20 11:02:30;;;;;;;21.60;11.50;;;4.10;99.90;;;;;;5050694;28;20528;-66
2023/01/20 11:05:09;;;;;;;21.10;13.10;;;4.10;99.90;;;;;;5050010;28;20463;-67
2023/01/20 11:07:35;;;;;;;17.30;12.80;;;4.20;99.90;;;;;;5049612;28;20451;-66
2023/01/20 11:10:17;;;;;;;19.80;12.27;;;4.20;99.90;;;;;;5048694;28;20433;-67
2023/01/20 11:12:46;;;;;;;19.10;13.03;;;4.30;99.90;;;;;;5052881;28;20480;-66
2023/01/20 11:15:37;;;;;;;18.63;13.97;;;4.40;99.90;;;;;;5047956;28;20445;-67
2023/01/20 11:18:15;;;;;;;18.87;13.67;;;4.40;99.90;;;;;;5047470;28;20903;-66
2023/01/20 11:20:53;;;;;;;18.43;13.50;;;4.60;99.90;;;;;;5046442;28;20453;-66
2023/01/20 11:23:29;;;;;;;18.80;14.97;;;4.70;99.90;;;;;;5046261;28;20478;-66
2023/01/20 11:26:21;;;;;;;22.37;13.43;;;4.50;99.90;;;;;;5050968;28;20430;-66
2023/01/20 11:29:09;;;;;;;23.17;15.30;;;4.50;99.90;;;;;;5046006;28;20533;-67
2023/01/20 11:31:39;;;;;;;22.07;14.50;;;4.60;99.90;;;;;;5050548;28;21001;-67
2023/01/20 11:34:24;;;;;;;18.70;12.67;;;4.50;99.90;;;;;;5050041;28;21050;-67
2023/01/20 11:37:10;;;;;;;24.33;14.17;;;4.60;99.90;;;;;;5049642;28;20426;-67
2023/01/20 11:39:59;;;;;;;19.53;12.90;;;4.60;99.90;;;;;;5043429;28;20432;-66
2023/01/20 11:42:30;;;;;;;18.73;13.43;;;4.60;99.90;;;;;;5051670;28;20453;-67
2023/01/20 11:45:03;;;;;;;19.70;12.97;;;4.60;99.90;;;;;;5047817;28;20516;-68
2023/01/20 11:47:35;;;;;;;20.70;14.30;;;4.80;99.90;;;;;;5048487;28;20428;-67
2023/01/20 11:50:03;;;;;;;19.40;13.67;;;4.70;99.90;;;;;;5048991;28;21051;-67
2023/01/20 11:52:35;;;;;;;15.93;11.40;;;4.70;99.90;;;;;;5042271;28;20480;-67
2023/01/20 11:55:11;;;;;;;18.37;13.90;;;4.80;99.90;;;;;;5043976;28;20456;-66
2023/01/20 11:57:41;;;;;;;18.60;12.67;;;4.70;99.90;;;;;;5048239;28;20440;-67
2023/01/20 12:00:26;;;;;;;17.00;12.77;;;4.70;99.90;;;;;;5044273;28;20521;-68
2023/01/20 12:03:15;;;;;;;18.60;12.77;;;4.80;99.90;;;;;;5048894;28;20413;-66
2023/01/20 12:06:00;;;;;;;17.53;13.07;;;4.80;99.90;;;;;;5048003;28;20501;-67
2023/01/20 12:08:50;;;;;;;18.50;12.27;;;4.70;99.90;;;;;;5045496;28;20444;-67
2023/01/20 12:11:29;;;;;;;18.23;12.70;;;4.80;99.90;;;;;;5045698;28;20552;-67
2023/01/20 12:14:21;;;;;;;19.67;13.77;;;5.00;99.90;;;;;;5042546;28;20479;-68
2023/01/20 12:17:14;;;;;;;15.90;12.57;;;5.10;99.90;;;;;;5049900;28;21172;-68
2023/01/20 12:20:03;;;;;;;14.60;12.00;;;5.20;99.90;;;;;;5049895;28;20414;-68
2023/01/20 12:23:04;;;;;;;17.90;11.90;;;5.50;99.90;;;;;;5047048;28;20465;-67
2023/01/20 12:25:35;;;;;;;16.27;13.80;;;5.60;99.90;;;;;;5031083;28;20449;-67
2023/01/20 12:28:15;;;;;;;18.33;12.70;;;6.10;99.90;;;;;;5046348;28;20485;-69
2023/01/20 12:30:57;;;;;;;13.80;11.47;;;6.30;99.90;;;;;;5053586;28;20534;-67
2023/01/20 12:33:32;;;;;;;17.27;11.60;;;6.30;99.90;;;;;;5048617;28;20465;-68
2023/01/20 12:36:18;;;;;;;15.00;10.73;;;6.40;99.90;;;;;;5049945;28;20463;-69
2023/01/20 12:38:47;;;;;;;13.70;11.03;;;6.30;99.90;;;;;;5050025;28;20965;-71
2023/01/20 12:41:26;;;;;;;15.97;11.17;;;6.20;99.90;;;;;;5045856;28;20525;-69
2023/01/20 12:44:02;;;;;;;20.40;11.60;;;6.00;99.90;;;;;;5048447;28;20533;-70
2023/01/20 12:46:40;;;;;;;15.17;10.90;;;6.00;99.90;;;;;;5048298;28;20480;-70
2023/01/20 12:49:35;;;;;;;16.63;11.83;;;5.90;99.90;;;;;;5047743;28;20781;-71
2023/01/20 12:52:39;;;;;;;16.47;12.17;;;5.70;99.90;;;;;;5050719;28;20499;-71
2023/01/20 12:55:29;;;;;;;16.83;11.67;;;5.60;99.90;;;;;;5004456;28;20433;-72
2023/01/20 12:58:08;;;;;;;15.13;10.83;;;5.50;99.90;;;;;;5048027;28;20426;-69
2023/01/20 13:00:52;;;;;;;19.97;11.50;;;5.90;99.90;;;;;;5049062;28;20464;-70
2023/01/20 13:03:51;;;;;;;13.40;10.03;;;6.00;99.90;;;;;;5049385;28;20417;-71
2023/01/20 13:06:37;;;;;;;13.20;9.53;;;5.90;99.90;;;;;;5047238;28;20428;-70
2023/01/20 13:09:21;;;;;;;13.63;10.30;;;6.00;99.90;;;;;;5047726;28;20440;-70
2023/01/20 13:12:15;;;;;;;14.27;10.30;;;6.10;99.90;;;;;;5050067;28;20452;-70
2023/01/20 13:14:47;;;;;;;13.93;10.17;;;6.70;99.90;;;;;;5049973;28;20421;-69
2023/01/20 13:17:37;;;;;;;13.37;9.40;;;7.20;99.90;;;;;;5041336;28;20456;-67
2023/01/20 13:20:03;;;;;;;11.20;9.50;;;7.10;99.90;;;;;;5048846;28;20420;-71